Time;durP1;ratioP1;P1;durP2;ratioP2;P2;SDS_P1;SDS_P2;PMS_P1;PMS_P2;Temp;Humidity;BMP_temperature;BMP_pressure;BME280_temperature;BME280_humidity;BME280_pressure;Samples;Min_cycle;Max_cycle;Signal;HPM_P1;HPM_P2
2024/03/01 00:01:20;;;;;;;26.08;16.05;;;7.80;99.90;;;;;;5047719;28;20686;-72
2024/03/01 00:03:47;;;;;;;23.00;15.35;;;7.80;99.90;;;;;;5054121;28;20227;-72
2024/03/01 00:06:14;;;;;;;22.05;13.73;;;7.80;99.90;;;;;;5055562;28;20334;-71
2024/03/01 00:08:43;;;;;;;23.83;15.50;;;7.70;99.90;;;;;;5049162;28;20759;-73
2024/03/01 00:11:10;;;;;;;21.55;14.70;;;7.70;99.90;;;;;;5048296;28;20274;-73
2024/03/01 00:13:37;;;;;;;27.63;17.92;;;7.70;99.90;;;;;;5048604;28;20728;-73
2024/03/01 00:16:04;;;;;;;29.00;19.17;;;7.70;99.90;;;;;;5053211;28;20262;-71
2024/03/01 00:18:31;;;;;;;23.48;15.93;;;7.70;99.90;;;;;;5051850;28;20197;-70
2024/03/01 00:20:59;;;;;;;22.98;16.45;;;7.60;99.90;;;;;;5046620;28;20669;-72
2024/03/01 00:23:26;;;;;;;21.67;13.85;;;7.60;99.90;;;;;;5055037;28;20278;-73
2024/03/01 00:25:55;;;;;;;24.98;15.65;;;7.60;99.90;;;;;;5056030;28;20235;-70
2024/03/01 00:28:22;;;;;;;27.42;14.95;;;7.50;99.90;;;;;;5055791;28;20219;-72
2024/03/01 00:30:49;;;;;;;25.15;17.13;;;7.50;99.90;;;;;;5055543;28;20223;-72
2024/03/01 00:33:16;;;;;;;29.08;15.65;;;7.50;99.90;;;;;;5054768;28;20273;-73
2024/03/01 00:35:44;;;;;;;31.45;18.20;;;7.40;99.90;;;;;;5055432;28;20557;-70
2024/03/01 00:38:10;;;;;;;23.50;16.40;;;7.40;99.90;;;;;;5055018;28;20200;-72
2024/03/01 00:40:38;;;;;;;25.08;17.10;;;7.40;99.90;;;;;;5055664;28;20192;-74
2024/03/01 00:43:06;;;;;;;25.20;15.95;;;7.40;99.90;;;;;;5055515;28;20235;-74
2024/03/01 00:45:33;;;;;;;25.67;15.70;;;7.40;99.90;;;;;;5054391;28;20228;-72
2024/03/01 00:48:00;;;;;;;28.92;16.70;;;7.40;99.90;;;;;;5055137;28;20208;-71
2024/03/01 00:50:27;;;;;;;26.85;16.98;;;7.40;99.90;;;;;;5054786;28;20208;-70
2024/03/01 00:52:54;;;;;;;25.33;15.88;;;7.40;99.90;;;;;;5061344;28;20228;-69
2024/03/01 00:55:21;;;;;;;22.50;13.90;;;7.40;99.90;;;;;;5059311;28;20272;-73
2024/03/01 00:57:48;;;;;;;28.02;17.63;;;7.40;99.90;;;;;;5056249;28;20212;-70
2024/03/01 01:00:18;;;;;;;25.63;17.00;;;7.20;99.90;;;;;;5051887;28;20214;-71
2024/03/01 01:02:45;;;;;;;28.58;18.05;;;7.20;99.90;;;;;;5060005;28;20223;-71
2024/03/01 01:05:12;;;;;;;27.17;17.63;;;7.20;99.90;;;;;;5063514;28;20273;-71
2024/03/01 01:07:39;;;;;;;31.38;18.00;;;7.10;99.90;;;;;;5072737;28;20207;-72
2024/03/01 01:10:07;;;;;;;30.05;17.27;;;7.00;99.90;;;;;;5073569;28;20226;-71
2024/03/01 01:13:02;;;;;;;31.65;18.20;;;7.00;99.90;;;;;;5052336;28;20543;-76
2024/03/01 01:15:30;;;;;;;32.47;19.98;;;7.00;99.90;;;;;;5043916;28;20325;-76
2024/03/01 01:17:57;;;;;;;34.17;20.20;;;7.00;99.90;;;;;;5052226;28;20214;-74
2024/03/01 01:20:24;;;;;;;26.50;17.23;;;7.00;99.90;;;;;;5053705;28;20253;-73
2024/03/01 01:22:51;;;;;;;30.15;17.80;;;6.90;99.90;;;;;;5046879;28;20289;-74
2024/03/01 01:25:19;;;;;;;31.83;19.98;;;6.90;99.90;;;;;;5050308;28;20258;-74
2024/03/01 01:27:46;;;;;;;26.13;17.30;;;6.90;99.90;;;;;;5058814;28;20603;-72
2024/03/01 01:30:13;;;;;;;31.20;19.55;;;6.90;99.90;;;;;;5062642;28;20231;-72
2024/03/01 01:32:42;;;;;;;35.53;21.85;;;6.80;99.90;;;;;;5055073;28;20274;-74
2024/03/01 01:35:09;;;;;;;28.00;17.50;;;6.80;99.90;;;;;;5050412;28;20224;-72
2024/03/01 01:37:36;;;;;;;28.50;17.85;;;6.70;99.90;;;;;;5049757;28;20200;-70
2024/03/01 01:40:05;;;;;;;28.30;18.33;;;6.70;99.90;;;;;;5045472;28;20230;-73
2024/03/01 01:42:32;;;;;;;32.80;19.75;;;6.70;99.90;;;;;;5049083;28;20215;-70
2024/03/01 01:44:59;;;;;;;28.83;19.02;;;6.60;99.90;;;;;;5045598;28;20200;-73
2024/03/01 01:47:26;;;;;;;31.42;18.15;;;6.60;99.90;;;;;;5049149;28;20204;-72
2024/03/01 01:49:55;;;;;;;29.10;18.92;;;6.60;99.90;;;;;;5053533;28;20698;-73
2024/03/01 01:52:22;;;;;;;36.35;19.63;;;6.50;99.90;;;;;;5044048;28;20205;-70
2024/03/01 01:54:49;;;;;;;33.97;18.92;;;6.50;99.90;;;;;;5048957;28;20553;-73
2024/03/01 01:57:16;;;;;;;36.45;20.20;;;6.50;99.90;;;;;;5046335;28;20201;-73
2024/03/01 01:59:44;;;;;;;32.03;20.35;;;6.40;99.90;;;;;;5047756;28;20254;-74
2024/03/01 02:02:12;;;;;;;32.72;18.80;;;6.40;99.90;;;;;;5050202;28;20220;-73
2024/03/01 02:04:40;;;;;;;31.70;18.77;;;6.40;99.90;;;;;;5052202;28;20267;-73
2024/03/01 02:07:09;;;;;;;31.58;19.45;;;6.40;99.90;;;;;;5054525;28;20287;-71
2024/03/01 02:09:37;;;;;;;40.60;20.90;;;6.30;99.90;;;;;;5053526;28;20219;-71
2024/03/01 02:12:04;;;;;;;34.10;20.77;;;6.30;99.90;;;;;;5050322;28;20295;-72
2024/03/01 02:14:31;;;;;;;34.92;22.25;;;6.30;99.90;;;;;;5048234;28;20220;-73
2024/03/01 02:16:58;;;;;;;33.80;19.15;;;6.30;99.90;;;;;;5054119;28;20638;-72
2024/03/01 02:19:25;;;;;;;32.20;20.20;;;6.20;99.90;;;;;;5044587;28;20616;-72
2024/03/01 02:22:03;;;;;;;32.38;19.90;;;6.10;99.90;;;;;;5047749;28;20212;-71
2024/03/01 02:24:32;;;;;;;34.95;20.60;;;6.10;99.90;;;;;;5048007;28;20594;-70
2024/03/01 02:26:59;;;;;;;36.30;21.75;;;6.10;99.90;;;;;;5053015;28;20212;-71
2024/03/01 02:29:26;;;;;;;37.72;20.73;;;6.10;99.90;;;;;;5048432;28;20282;-71
2024/03/01 02:31:53;;;;;;;33.30;21.25;;;6.10;99.90;;;;;;5052791;28;20681;-71
2024/03/01 02:34:20;;;;;;;33.60;21.00;;;6.00;99.90;;;;;;5048989;28;20224;-72
2024/03/01 02:36:47;;;;;;;33.13;19.27;;;6.00;99.90;;;;;;5049125;28;20277;-72
2024/03/01 02:39:18;;;;;;;40.15;20.83;;;6.00;99.90;;;;;;5045893;28;20204;-74
2024/03/01 02:44:20;;;;;;;31.42;20.23;;;5.90;99.90;;;;;;5030201;28;20236;-74
2024/03/01 02:46:46;;;;;;;36.10;20.55;;;6.00;99.90;;;;;;5032923;28;20613;-71
2024/03/01 02:49:13;;;;;;;39.30;21.95;;;5.80;99.90;;;;;;5026316;28;20255;-72
2024/03/01 02:51:41;;;;;;;30.33;20.08;;;5.80;99.90;;;;;;5023868;28;20277;-72
2024/03/01 02:54:08;;;;;;;38.15;22.27;;;5.80;99.90;;;;;;5027597;28;20625;-70
2024/03/01 02:56:35;;;;;;;37.72;22.23;;;5.80;99.90;;;;;;5024464;28;20247;-71
2024/03/01 02:59:02;;;;;;;31.88;19.98;;;5.70;99.90;;;;;;5033042;28;20673;-71
2024/03/01 03:01:32;;;;;;;40.33;23.00;;;5.70;99.90;;;;;;5032224;28;20208;-71
2024/03/01 03:03:59;;;;;;;38.08;23.27;;;5.70;99.90;;;;;;5033285;28;20235;-73
2024/03/01 03:06:26;;;;;;;42.58;23.42;;;5.70;99.90;;;;;;5035382;28;20209;-72
2024/03/01 03:08:54;;;;;;;40.78;23.13;;;5.70;99.90;;;;;;5031545;28;20212;-71
2024/03/01 03:11:21;;;;;;;38.25;23.17;;;5.70;99.90;;;;;;5030466;28;20547;-73
2024/03/01 03:13:49;;;;;;;37.08;22.15;;;5.60;99.90;;;;;;5030383;28;20228;-71
2024/03/01 03:16:17;;;;;;;34.00;21.85;;;5.70;99.90;;;;;;5032751;28;20262;-75
2024/03/01 03:18:45;;;;;;;32.55;19.00;;;5.60;99.90;;;;;;5026417;28;20209;-72
2024/03/01 03:21:13;;;;;;;43.53;23.92;;;5.60;99.90;;;;;;5032327;28;20204;-71
2024/03/01 03:23:40;;;;;;;35.03;21.25;;;5.60;99.90;;;;;;5028248;28;20711;-72
2024/03/01 03:26:08;;;;;;;39.30;22.75;;;5.60;99.90;;;;;;5027724;28;20214;-72
2024/03/01 03:28:35;;;;;;;42.28;23.92;;;5.70;99.90;;;;;;5027216;28;20663;-71
2024/03/01 03:31:02;;;;;;;30.70;20.63;;;5.60;99.90;;;;;;5027498;28;20586;-73
2024/03/01 03:33:29;;;;;;;34.35;21.58;;;5.70;99.90;;;;;;5031523;28;20619;-71
2024/03/01 03:35:57;;;;;;;33.25;19.52;;;5.70;99.90;;;;;;5027470;28;20208;-73
2024/03/01 03:38:24;;;;;;;39.05;22.35;;;5.70;99.90;;;;;;5030450;28;20209;-75
2024/03/01 03:40:51;;;;;;;41.95;23.58;;;5.60;99.90;;;;;;5028726;28;20223;-71
2024/03/01 03:43:18;;;;;;;46.38;23.80;;;5.60;99.90;;;;;;5040571;28;20232;-75
2024/03/01 03:45:45;;;;;;;40.10;22.88;;;5.60;99.90;;;;;;5026260;28;20240;-70
2024/03/01 03:48:12;;;;;;;35.80;21.77;;;5.60;99.90;;;;;;5029055;28;20209;-71
2024/03/01 03:50:39;;;;;;;33.40;19.83;;;5.60;99.90;;;;;;5029007;28;20230;-73
2024/03/01 03:53:08;;;;;;;39.42;22.60;;;5.70;99.90;;;;;;5021466;28;20225;-72
2024/03/01 03:55:35;;;;;;;46.38;23.80;;;5.60;99.90;;;;;;5031191;28;20602;-74
2024/03/01 03:58:02;;;;;;;43.03;23.80;;;5.60;99.90;;;;;;5031954;28;20204;-74
2024/03/01 04:00:29;;;;;;;41.80;25.10;;;5.60;99.90;;;;;;5025124;28;20232;-74
2024/03/01 04:02:56;;;;;;;35.30;20.85;;;5.60;99.90;;;;;;5029315;28;20232;-73
2024/03/01 04:05:23;;;;;;;39.05;22.70;;;5.60;99.90;;;;;;5023899;28;20288;-74
2024/03/01 04:07:50;;;;;;;38.97;22.92;;;5.60;99.90;;;;;;5029793;28;20279;-75
2024/03/01 04:10:19;;;;;;;45.97;24.20;;;5.50;99.90;;;;;;5023543;28;20209;-73
2024/03/01 04:12:46;;;;;;;41.08;24.00;;;5.50;99.90;;;;;;5032017;28;20284;-71
2024/03/01 04:15:13;;;;;;;40.55;24.48;;;5.50;99.90;;;;;;5023989;28;20198;-75
2024/03/01 04:17:39;;;;;;;39.25;20.80;;;5.50;99.90;;;;;;5031491;28;20212;-72
2024/03/01 04:20:08;;;;;;;41.00;22.85;;;5.50;99.90;;;;;;5029342;28;20203;-71
2024/03/01 04:22:35;;;;;;;43.85;21.98;;;5.50;99.90;;;;;;5034744;28;20201;-72
2024/03/01 04:25:02;;;;;;;36.75;21.90;;;5.50;99.90;;;;;;5024066;28;20255;-72
2024/03/01 04:27:31;;;;;;;39.65;21.45;;;5.50;99.90;;;;;;5031972;28;20308;-71
2024/03/01 04:29:58;;;;;;;38.70;22.17;;;5.50;99.90;;;;;;5029690;28;20235;-73
2024/03/01 04:32:25;;;;;;;39.40;22.95;;;5.50;99.90;;;;;;5031946;28;20206;-71
2024/03/01 04:34:54;;;;;;;41.15;23.20;;;5.50;99.90;;;;;;5031395;28;20208;-73
2024/03/01 04:37:21;;;;;;;43.50;21.83;;;5.60;99.90;;;;;;5034679;28;20278;-75
2024/03/01 04:39:48;;;;;;;41.65;24.58;;;5.50;99.90;;;;;;5034839;28;20209;-73
2024/03/01 04:42:15;;;;;;;45.25;23.98;;;5.40;99.90;;;;;;5029358;28;20248;-72
2024/03/01 04:44:43;;;;;;;43.47;25.92;;;5.40;99.90;;;;;;5025780;28;20228;-73
2024/03/01 04:47:12;;;;;;;41.10;22.70;;;5.30;99.90;;;;;;5031163;28;20260;-73
2024/03/01 04:49:43;;;;;;;37.38;21.73;;;5.30;99.90;;;;;;5028343;28;20596;-75
2024/03/01 04:52:11;;;;;;;40.35;21.92;;;5.30;99.90;;;;;;5032108;28;20227;-71
2024/03/01 04:54:38;;;;;;;40.22;25.20;;;5.40;99.90;;;;;;5027228;28;20304;-71
2024/03/01 04:57:06;;;;;;;39.13;23.80;;;5.50;99.90;;;;;;5034507;28;20266;-71
2024/03/01 04:59:38;;;;;;;40.80;23.80;;;5.50;99.90;;;;;;5034808;28;20209;-74
2024/03/01 05:02:07;;;;;;;42.00;22.88;;;5.50;99.90;;;;;;5039142;28;20228;-73
2024/03/01 05:04:34;;;;;;;43.28;25.17;;;5.50;99.90;;;;;;5047312;28;20220;-71
2024/03/01 05:07:02;;;;;;;38.63;20.83;;;5.60;99.90;;;;;;5045280;28;20204;-69
2024/03/01 05:09:29;;;;;;;41.30;24.38;;;5.60;99.90;;;;;;5051485;28;20208;-73
2024/03/01 05:11:57;;;;;;;38.13;23.83;;;5.70;99.90;;;;;;5044659;28;20231;-73
2024/03/01 05:14:24;;;;;;;41.17;23.92;;;5.60;99.90;;;;;;5031817;28;20224;-73
2024/03/01 05:16:50;;;;;;;43.47;25.65;;;5.60;99.90;;;;;;5031888;28;20200;-72
2024/03/01 05:19:19;;;;;;;45.30;26.00;;;5.60;99.90;;;;;;5031527;28;20271;-70
2024/03/01 05:21:46;;;;;;;39.03;25.60;;;5.60;99.90;;;;;;5033865;28;20211;-73
2024/03/01 05:24:13;;;;;;;43.88;23.60;;;5.60;99.90;;;;;;5026995;28;20311;-71
2024/03/01 05:26:40;;;;;;;37.08;23.15;;;5.70;99.90;;;;;;5029254;28;20201;-74
2024/03/01 05:29:07;;;;;;;40.97;23.67;;;5.80;99.90;;;;;;5024689;28;20233;-75
2024/03/01 05:31:46;;;;;;;42.72;24.35;;;5.80;99.90;;;;;;5033443;28;20229;-74
2024/03/01 05:34:14;;;;;;;40.08;24.60;;;5.90;99.90;;;;;;5023752;28;20264;-72
2024/03/01 05:36:42;;;;;;;40.63;24.58;;;5.90;99.90;;;;;;5025301;28;20244;-75
2024/03/01 05:39:18;;;;;;;42.88;27.83;;;5.80;99.90;;;;;;5038643;28;20545;-71
2024/03/01 05:41:45;;;;;;;39.75;24.50;;;5.80;99.90;;;;;;5031266;28;20204;-73
2024/03/01 05:44:12;;;;;;;40.85;24.15;;;5.80;99.90;;;;;;5029761;28;20283;-76
2024/03/01 05:46:39;;;;;;;43.30;25.67;;;5.80;99.90;;;;;;5030063;28;20212;-74
2024/03/01 05:49:06;;;;;;;39.38;25.02;;;5.70;99.90;;;;;;5034372;28;20291;-75
2024/03/01 05:51:33;;;;;;;41.33;23.42;;;5.60;99.90;;;;;;5022376;28;20609;-76
2024/03/01 05:54:03;;;;;;;43.10;25.95;;;5.70;99.90;;;;;;5026145;28;20224;-74
2024/03/01 05:56:30;;;;;;;42.60;22.50;;;5.70;99.90;;;;;;5030328;28;20197;-73
2024/03/01 05:58:58;;;;;;;41.85;25.90;;;5.70;99.90;;;;;;5034292;28;20298;-75
2024/03/01 06:01:25;;;;;;;39.67;22.45;;;5.70;99.90;;;;;;5029143;28;20201;-73
2024/03/01 06:03:52;;;;;;;44.72;23.27;;;5.70;99.90;;;;;;5033040;28;20224;-74
2024/03/01 06:06:19;;;;;;;38.50;24.15;;;5.70;99.90;;;;;;5025109;28;20208;-73
2024/03/01 06:08:47;;;;;;;45.22;25.05;;;5.70;99.90;;;;;;5030572;28;20204;-74
2024/03/01 06:11:15;;;;;;;51.10;26.33;;;5.70;99.90;;;;;;5033326;28;20304;-75
2024/03/01 06:13:42;;;;;;;45.05;26.25;;;5.70;99.90;;;;;;5032757;28;20228;-75
2024/03/01 06:16:09;;;;;;;42.13;23.95;;;5.60;99.90;;;;;;5033805;28;20240;-71
2024/03/01 06:18:36;;;;;;;47.63;25.58;;;5.60;99.90;;;;;;5023976;28;20209;-71
2024/03/01 06:21:03;;;;;;;48.30;26.27;;;5.60;99.90;;;;;;5028077;28;20266;-73
2024/03/01 06:23:30;;;;;;;47.33;25.58;;;5.60;99.90;;;;;;5028535;28;20290;-74
2024/03/01 06:25:57;;;;;;;43.25;23.95;;;5.60;99.90;;;;;;5030834;28;20212;-73
2024/03/01 06:28:26;;;;;;;41.30;25.38;;;5.50;99.90;;;;;;5027611;28;20224;-75
2024/03/01 06:30:53;;;;;;;44.72;26.10;;;5.60;99.90;;;;;;5025563;28;20698;-76
2024/03/01 06:33:20;;;;;;;42.63;26.35;;;5.60;99.90;;;;;;5032744;28;20233;-75
2024/03/01 06:35:47;;;;;;;42.70;24.20;;;5.60;99.90;;;;;;5033163;28;20229;-71
2024/03/01 06:38:14;;;;;;;42.97;24.13;;;5.70;99.90;;;;;;5030699;28;20213;-75
2024/03/01 06:40:41;;;;;;;42.28;26.17;;;5.70;99.90;;;;;;5028308;28;20205;-71
2024/03/01 06:43:08;;;;;;;49.88;25.38;;;5.70;99.90;;;;;;5028765;28;20307;-74
2024/03/01 06:45:37;;;;;;;42.85;25.45;;;5.70;99.90;;;;;;5027664;28;20201;-73
2024/03/01 06:48:04;;;;;;;43.85;24.42;;;5.80;99.90;;;;;;5027363;28;20259;-73
2024/03/01 06:50:31;;;;;;;40.00;24.40;;;5.90;99.90;;;;;;5029579;28;20278;-76
2024/03/01 06:52:59;;;;;;;55.00;24.35;;;5.90;99.90;;;;;;5027055;28;20221;-73
2024/03/01 06:55:26;;;;;;;42.67;24.08;;;6.10;99.90;;;;;;5029899;28;20295;-73
2024/03/01 06:57:53;;;;;;;46.35;26.00;;;6.20;99.90;;;;;;5036924;28;20205;-72
2024/03/01 07:00:20;;;;;;;43.25;23.45;;;6.30;99.90;;;;;;5027282;28;20198;-72
2024/03/01 07:02:49;;;;;;;41.85;24.25;;;6.30;99.90;;;;;;5030347;28;20228;-73
2024/03/01 07:05:16;;;;;;;41.95;25.52;;;6.40;99.90;;;;;;5033437;28;20204;-74
2024/03/01 07:07:43;;;;;;;38.78;24.55;;;6.50;99.90;;;;;;5033245;28;20213;-73
2024/03/01 07:10:10;;;;;;;42.08;25.30;;;6.80;99.90;;;;;;5022443;28;20667;-75
2024/03/01 07:12:37;;;;;;;41.08;25.40;;;7.20;99.90;;;;;;5023626;28;20208;-75
2024/03/01 07:15:05;;;;;;;45.30;24.20;;;7.30;99.90;;;;;;5026330;28;20197;-73
2024/03/01 07:17:32;;;;;;;38.28;24.17;;;7.40;99.90;;;;;;5022827;28;20601;-75
2024/03/01 07:20:01;;;;;;;47.55;28.40;;;7.30;99.90;;;;;;5028768;28;20254;-76
2024/03/01 07:22:28;;;;;;;42.95;24.50;;;7.40;99.90;;;;;;5027982;28;20201;-74
2024/03/01 07:24:55;;;;;;;41.67;25.50;;;7.40;99.90;;;;;;5030726;28;20217;-74
2024/03/01 07:27:23;;;;;;;36.40;22.55;;;7.40;99.90;;;;;;5032484;28;20201;-77
2024/03/01 07:29:50;;;;;;;60.65;28.30;;;7.50;99.90;;;;;;5032508;28;20281;-74
2024/03/01 07:32:17;;;;;;;39.40;24.15;;;8.00;99.90;;;;;;5025944;28;20275;-75
2024/03/01 07:34:43;;;;;;;34.30;21.63;;;8.30;99.90;;;;;;5031249;28;20691;-73
2024/03/01 07:37:12;;;;;;;36.92;23.83;;;8.80;99.90;;;;;;5036211;28;20261;-74
2024/03/01 07:39:39;;;;;;;37.38;24.02;;;9.00;99.90;;;;;;5026362;28;20292;-74
2024/03/01 07:42:06;;;;;;;37.25;23.73;;;9.00;99.90;;;;;;5033315;28;20709;-75
2024/03/01 07:44:34;;;;;;;42.55;25.25;;;9.10;99.90;;;;;;5036265;28;20225;-74
2024/03/01 07:47:03;;;;;;;38.22;21.65;;;9.00;99.90;;;;;;5040213;28;20207;-75
2024/03/01 07:49:30;;;;;;;34.78;22.30;;;9.10;99.90;;;;;;5048486;28;20239;-75
2024/03/01 07:51:58;;;;;;;39.70;23.85;;;9.00;99.90;;;;;;5051825;28;20220;-74
2024/03/01 07:54:28;;;;;;;41.10;24.35;;;9.20;99.90;;;;;;5036812;28;20248;-75
2024/03/01 07:56:55;;;;;;;36.92;24.75;;;9.20;99.90;;;;;;5032934;28;20220;-76
2024/03/01 07:59:22;;;;;;;41.15;24.23;;;9.10;99.90;;;;;;5028013;28;20209;-73
2024/03/01 08:01:49;;;;;;;40.63;24.00;;;9.00;99.90;;;;;;5036268;28;20247;-74
2024/03/01 08:04:16;;;;;;;41.70;23.80;;;8.90;99.90;;;;;;5035729;28;20221;-76
2024/03/01 08:06:43;;;;;;;37.92;23.40;;;8.70;99.90;;;;;;5029014;28;20204;-75
2024/03/01 08:09:18;;;;;;;35.80;21.63;;;8.60;99.90;;;;;;5035983;28;20228;-75
2024/03/01 08:11:47;;;;;;;46.22;24.60;;;8.60;99.90;;;;;;5032576;28;20216;-77
2024/03/01 08:14:22;;;;;;;37.95;23.67;;;8.60;99.90;;;;;;5020878;28;20247;-73
2024/03/01 08:16:52;;;;;;;38.13;23.98;;;8.60;99.90;;;;;;5041096;28;20243;-71
2024/03/01 08:19:20;;;;;;;39.10;21.73;;;8.50;99.90;;;;;;5038750;28;20209;-75
2024/03/01 08:21:48;;;;;;;33.65;21.27;;;8.70;99.90;;;;;;5026368;28;20205;-73
2024/03/01 08:24:22;;;;;;;33.45;22.08;;;8.70;99.90;;;;;;5024390;28;20674;-73
2024/03/01 08:26:50;;;;;;;38.33;23.45;;;8.70;99.90;;;;;;5031773;28;20291;-73
2024/03/01 08:29:18;;;;;;;39.80;24.98;;;8.70;99.90;;;;;;5035820;28;20201;-76
2024/03/01 08:31:46;;;;;;;40.53;24.90;;;8.60;99.90;;;;;;5026827;28;20228;-72
2024/03/01 08:34:24;;;;;;;36.35;23.52;;;8.60;99.90;;;;;;5030757;28;20253;-75
2024/03/01 08:36:52;;;;;;;36.85;25.40;;;8.60;99.90;;;;;;5029749;28;20254;-71
2024/03/01 08:39:21;;;;;;;37.90;23.13;;;8.50;99.90;;;;;;5035423;28;20240;-71
2024/03/01 08:44:53;;;;;;;38.20;23.30;;;8.60;99.90;;;;;;5027847;28;20224;-73
2024/03/01 08:47:28;;;;;;;36.65;23.10;;;8.60;99.90;;;;;;5009216;28;20206;-73
2024/03/01 08:50:31;;;;;;;35.83;22.73;;;8.60;99.90;;;;;;5035922;28;20219;-72
2024/03/01 08:53:00;;;;;;;39.95;24.30;;;8.80;99.90;;;;;;5022535;28;20315;-72
2024/03/01 08:55:50;;;;;;;36.38;23.58;;;8.90;99.90;;;;;;5023760;28;20212;-75
2024/03/01 08:58:23;;;;;;;41.40;25.13;;;9.10;99.90;;;;;;5030795;28;20240;-73
2024/03/01 09:00:54;;;;;;;39.78;22.95;;;9.10;99.90;;;;;;5032678;28;20213;-75
2024/03/01 09:03:24;;;;;;;37.20;22.67;;;9.30;99.90;;;;;;5031585;28;20291;-73
2024/03/01 09:05:53;;;;;;;38.40;23.25;;;9.40;99.90;;;;;;5032654;28;20652;-71
2024/03/01 09:08:24;;;;;;;36.88;22.23;;;9.80;99.90;;;;;;5028929;28;20643;-76
2024/03/01 09:10:55;;;;;;;33.60;21.98;;;10.60;99.90;;;;;;5033404;28;20251;-75
2024/03/01 09:13:23;;;;;;;33.70;21.60;;;11.90;99.90;;;;;;5033854;28;20691;-74
2024/03/01 09:15:53;;;;;;;34.47;22.30;;;13.20;99.90;;;;;;5026670;28;20667;-72
2024/03/01 09:18:42;;;;;;;31.10;20.97;;;14.20;99.90;;;;;;5034740;28;20465;-75
2024/03/01 09:21:41;;;;;;;34.60;24.40;;;15.40;99.90;;;;;;5029965;28;20481;-72
2024/03/01 09:24:12;;;;;;;31.47;20.97;;;16.30;98.10;;;;;;5029461;28;20459;-74
2024/03/01 09:26:40;;;;;;;32.17;21.87;;;17.00;96.40;;;;;;5033861;28;20862;-72
2024/03/01 09:29:07;;;;;;;32.40;22.20;;;17.30;95.70;;;;;;5034776;28;20444;-71
2024/03/01 09:31:36;;;;;;;32.20;22.80;;;17.40;95.20;;;;;;5033069;28;20487;-74
2024/03/01 09:34:08;;;;;;;31.50;22.50;;;17.30;95.10;;;;;;5034011;28;20969;-71
2024/03/01 09:36:36;;;;;;;31.57;20.60;;;17.70;94.20;;;;;;5036336;28;21107;-72
2024/03/01 09:39:05;;;;;;;29.10;19.70;;;17.90;94.10;;;;;;5039492;28;20439;-72
2024/03/01 09:41:49;;;;;;;32.60;22.87;;;18.30;93.90;;;;;;5035884;28;20826;-75
2024/03/01 09:44:29;;;;;;;28.50;19.53;;;18.10;93.00;;;;;;5036507;28;20960;-71
2024/03/01 09:47:08;;;;;;;24.50;18.57;;;17.20;94.10;;;;;;5029048;28;20451;-72
2024/03/01 09:49:50;;;;;;;29.37;18.37;;;16.50;95.20;;;;;;5043981;28;20463;-77
2024/03/01 09:52:31;;;;;;;26.87;17.87;;;16.00;96.30;;;;;;5053134;28;20471;-74
2024/03/01 09:55:15;;;;;;;26.17;19.17;;;14.90;97.60;;;;;;5043073;28;20517;-73
2024/03/01 09:57:52;;;;;;;28.10;17.80;;;14.20;99.20;;;;;;5033886;28;21409;-73
2024/03/01 10:00:23;;;;;;;26.13;18.85;;;13.60;99.90;;;;;;5033438;28;20208;-73
2024/03/01 10:03:00;;;;;;;23.92;18.65;;;13.40;99.90;;;;;;5029777;28;20256;-72
2024/03/01 10:05:51;;;;;;;20.85;15.80;;;13.30;99.90;;;;;;5025187;28;20201;-76
2024/03/01 10:08:28;;;;;;;21.92;16.38;;;14.10;99.90;;;;;;5032896;28;20580;-74
2024/03/01 10:11:10;;;;;;;28.75;19.40;;;14.40;99.90;;;;;;5021325;28;20615;-72
2024/03/01 10:13:51;;;;;;;21.52;17.10;;;13.90;99.90;;;;;;5025781;28;20218;-72
2024/03/01 10:16:27;;;;;;;23.23;16.13;;;13.60;99.90;;;;;;5036731;28;20267;-73
2024/03/01 10:19:29;;;;;;;24.52;17.58;;;13.20;99.90;;;;;;5030877;28;20277;-76
2024/03/01 10:22:08;;;;;;;26.13;16.60;;;13.20;99.90;;;;;;5031842;28;20216;-74
2024/03/01 10:24:55;;;;;;;29.02;16.88;;;13.40;99.90;;;;;;5030474;28;20228;-72
2024/03/01 10:27:29;;;;;;;24.65;17.15;;;13.20;99.90;;;;;;5031644;28;20193;-71
2024/03/01 10:30:09;;;;;;;20.88;15.90;;;13.00;99.90;;;;;;5033652;28;20204;-73
2024/03/01 10:32:44;;;;;;;21.80;14.57;;;12.80;99.90;;;;;;5032887;28;20224;-73
2024/03/01 10:35:20;;;;;;;26.50;17.00;;;12.70;99.90;;;;;;5026742;28;20228;-72
2024/03/01 10:37:59;;;;;;;22.25;16.40;;;12.60;99.90;;;;;;5025566;28;20654;-72
2024/03/01 10:40:29;;;;;;;25.92;17.27;;;12.40;99.90;;;;;;5028168;28;20229;-75
2024/03/01 10:43:09;;;;;;;42.78;17.25;;;12.20;99.90;;;;;;5032809;28;20220;-72
2024/03/01 10:45:40;;;;;;;21.65;13.73;;;11.90;99.90;;;;;;5032457;28;20295;-72
2024/03/01 10:48:07;;;;;;;25.35;16.63;;;11.90;99.90;;;;;;5032190;28;20209;-76
2024/03/01 10:50:43;;;;;;;20.83;14.75;;;11.70;99.90;;;;;;5034894;28;20643;-71
2024/03/01 10:53:18;;;;;;;20.63;16.00;;;11.70;99.90;;;;;;5027357;28;20235;-71
2024/03/01 10:55:51;;;;;;;18.25;13.55;;;11.70;99.90;;;;;;5038451;28;20204;-74
2024/03/01 10:58:24;;;;;;;20.38;14.38;;;11.70;99.90;;;;;;5022881;28;20205;-71
2024/03/01 11:00:57;;;;;;;20.10;14.40;;;11.70;99.90;;;;;;5027237;28;20255;-74
2024/03/01 11:03:30;;;;;;;24.05;16.85;;;11.90;99.90;;;;;;5030133;28;20294;-75
2024/03/01 11:06:13;;;;;;;20.30;16.25;;;12.00;99.90;;;;;;5033775;28;20603;-72
2024/03/01 11:08:50;;;;;;;21.63;16.90;;;12.00;99.90;;;;;;5031158;28;20211;-72
2024/03/01 11:11:28;;;;;;;20.10;15.80;;;11.90;99.90;;;;;;5032365;28;20227;-72
2024/03/01 11:13:58;;;;;;;17.38;15.38;;;12.00;99.90;;;;;;5027344;28;20295;-71
2024/03/01 11:16:32;;;;;;;20.67;16.90;;;12.00;99.90;;;;;;5029569;28;20292;-72
2024/03/01 11:19:05;;;;;;;23.70;15.52;;;11.90;99.90;;;;;;5033250;28;20284;-75
2024/03/01 11:21:37;;;;;;;19.60;16.05;;;11.80;99.90;;;;;;5026429;28;20201;-75
2024/03/01 11:24:10;;;;;;;21.70;15.18;;;11.80;99.90;;;;;;5027625;28;20216;-73
2024/03/01 11:26:43;;;;;;;21.42;16.20;;;11.90;99.90;;;;;;5028591;28;20208;-70
2024/03/01 11:29:19;;;;;;;23.88;17.20;;;12.00;99.90;;;;;;5027217;28;20215;-73
2024/03/01 11:31:52;;;;;;;20.30;17.13;;;11.80;99.90;;;;;;5036936;28;20250;-71
2024/03/01 11:34:29;;;;;;;22.13;16.15;;;11.80;99.90;;;;;;5034214;28;20223;-71
2024/03/01 11:37:15;;;;;;;23.17;15.68;;;11.90;99.90;;;;;;5026683;28;20200;-74
2024/03/01 11:39:54;;;;;;;21.77;15.40;;;11.90;99.90;;;;;;5032468;28;20862;-72
2024/03/01 11:42:36;;;;;;;20.38;16.05;;;11.70;99.90;;;;;;5028723;28;20642;-70
2024/03/01 11:45:10;;;;;;;27.10;17.70;;;11.60;99.90;;;;;;5028493;28;20615;-73
2024/03/01 11:47:50;;;;;;;19.83;15.57;;;11.70;99.90;;;;;;5032358;28;20670;-74
2024/03/01 11:50:50;;;;;;;25.38;17.38;;;11.60;99.90;;;;;;5038360;28;20208;-74
2024/03/01 11:53:32;;;;;;;20.95;16.67;;;11.50;99.90;;;;;;5026065;28;20307;-72
2024/03/01 11:56:23;;;;;;;22.90;17.60;;;11.40;99.90;;;;;;5032756;28;20604;-71
2024/03/01 11:58:58;;;;;;;25.55;18.50;;;11.40;99.90;;;;;;5030362;28;20350;-70
2024/03/01 12:01:35;;;;;;;21.40;16.05;;;11.30;99.90;;;;;;5031411;28;20204;-71
2024/03/01 12:04:38;;;;;;;24.30;18.15;;;11.40;99.90;;;;;;5030219;28;20270;-74
2024/03/01 12:07:38;;;;;;;21.67;17.35;;;11.40;99.90;;;;;;5024974;28;20242;-71
2024/03/01 12:10:18;;;;;;;17.50;14.98;;;11.60;99.90;;;;;;5034069;28;20280;-73
2024/03/01 12:12:49;;;;;;;24.15;18.63;;;11.90;99.90;;;;;;5033892;28;20320;-75
2024/03/01 12:15:21;;;;;;;22.23;16.35;;;12.30;99.90;;;;;;5030795;28;20564;-77
2024/03/01 12:17:58;;;;;;;22.08;18.20;;;12.70;99.90;;;;;;5031755;28;20208;-72
2024/03/01 12:20:25;;;;;;;26.10;17.85;;;12.70;99.90;;;;;;5025558;28;20733;-72
2024/03/01 12:23:06;;;;;;;22.27;17.85;;;12.70;99.90;;;;;;5028648;28;20294;-72
2024/03/01 12:25:38;;;;;;;24.58;17.02;;;12.70;99.90;;;;;;5028848;28;20225;-71
2024/03/01 12:28:13;;;;;;;22.23;15.95;;;13.00;99.90;;;;;;5032649;28;20200;-74
2024/03/01 12:30:46;;;;;;;22.08;17.98;;;13.10;99.90;;;;;;5034193;28;20262;-74
2024/03/01 12:33:27;;;;;;;21.83;18.42;;;13.20;99.90;;;;;;5037258;28;20224;-72
2024/03/01 12:36:02;;;;;;;25.45;19.38;;;12.90;99.90;;;;;;5040635;28;20237;-74
2024/03/01 12:38:32;;;;;;;25.13;19.40;;;12.90;99.90;;;;;;5050238;28;20210;-73
2024/03/01 12:41:17;;;;;;;21.55;17.20;;;12.90;99.90;;;;;;5028209;28;20201;-72
2024/03/01 12:44:03;;;;;;;22.42;17.52;;;12.60;99.90;;;;;;5031360;28;20237;-75
2024/03/01 12:46:54;;;;;;;21.08;16.38;;;12.60;99.90;;;;;;5030735;28;20733;-75
2024/03/01 12:49:34;;;;;;;23.30;16.90;;;12.60;99.90;;;;;;5039996;28;20209;-73
2024/03/01 12:52:14;;;;;;;18.38;15.32;;;12.70;99.90;;;;;;5026817;28;20217;-73
2024/03/01 12:54:47;;;;;;;16.77;14.20;;;12.50;99.90;;;;;;5033435;28;20251;-74
2024/03/01 12:57:24;;;;;;;17.73;13.90;;;12.50;99.90;;;;;;5028980;28;20607;-74